Skip Navigation LinksHome page > Tools > METAR decoder Skip Navigation Links

METAR decoder



Chicago O'Hare Intl, Chicago

For information only: do not use for flight planning or navigation.
Latest weather
Observation time Tuesday, October 6, 2015 6:51 PM CDT
Local time Tuesday, October 6, 2015 7:08 PM CDT
Flight conditions Visual Meteorological Conditions
Wind direction Southeast (140°)
Wind speed 10 mph
Visibility 10 mi.
Sky condition
Ceiling unlimited
Cloud layer few clouds 9,000 ft.
Cloud layer few clouds 25,000 ft.
Temperature 61°F
Dewpoint 54°F
Altimeter 30.10 in.Hg
Pressure change last 3 hours0.02 in.Hg
Pressure falling, then rising
Derived measurements
Relative humidity 78%
Density altitude 793 ft.
Sea-level pressure 30.09 in.Hg
Climate data
Temperature minimum, last 6 hours 61°F
Temperature maximum, last 6 hours 71°F
Automated weather observing station with precipitation discriminator.
METAR KORD 062351Z 14009KT 10SM FEW090 FEW250 16/12 A3010 RMK AO2 SLP191 T01610122 10217 20161 55006

InnerDrive.Weather 4.0.5722.1 Release CLR 4.0.30319.34014
Copyright ©2015 Inner Drive Technology. All rights reserved. Portions Copyright ©1986-2015 David Braverman.

Find weather

Site navigation

Skip Navigation Links

Place info

Page info

PayPal - The safer, easier way to pay online!

Return home.

Copyright ©2015 Inner Drive Technology. Purveyors of fine, hand-crafted computer software. Page printed 2015-10-07T00:08:57 UTC.